Time;durP1;ratioP1;P1;durP2;ratioP2;P2;SDS_P1;SDS_P2;PMS_P1;PMS_P2;Temp;Humidity;BMP_temperature;BMP_pressure;BME280_temperature;BME280_humidity;BME280_pressure;Samples;Min_cycle;Max_cycle;Signal;HPM_P1;HPM_P2
2023/08/14 00:02:22;;;;;;;8.77;7.88;;;;;;;17.17;100.00;101517.03;5032983;28;20140;-72
2023/08/14 00:04:50;;;;;;;11.13;7.15;;;;;;;17.20;100.00;101518.59;5026555;28;20463;-72
2023/08/14 00:07:16;;;;;;;7.72;6.40;;;;;;;17.12;100.00;101516.53;5025710;28;20116;-72
2023/08/14 00:09:42;;;;;;;12.35;7.70;;;;;;;17.08;100.00;101533.91;5032006;28;20034;-72
2023/08/14 00:12:07;;;;;;;9.45;6.68;;;;;;;17.05;100.00;101526.06;5030538;28;20163;-72
2023/08/14 00:14:33;;;;;;;9.02;6.38;;;;;;;17.11;100.00;101517.50;5034792;28;20850;-72
2023/08/14 00:16:58;;;;;;;6.78;6.07;;;;;;;17.11;100.00;101524.72;5028586;28;20065;-72
2023/08/14 00:19:24;;;;;;;9.25;7.50;;;;;;;17.13;100.00;101528.16;5030664;28;20111;-72
2023/08/14 00:21:50;;;;;;;9.40;6.25;;;;;;;17.03;100.00;101528.03;5035430;28;20160;-72
2023/08/14 00:24:16;;;;;;;7.53;6.80;;;;;;;17.06;100.00;101527.78;5028993;28;20153;-72
2023/08/14 00:26:41;;;;;;;7.93;7.10;;;;;;;17.03;100.00;101525.34;5019078;28;20038;-72
2023/08/14 00:29:07;;;;;;;13.85;6.20;;;;;;;17.06;100.00;101528.63;5035849;28;20555;-72
2023/08/14 00:31:32;;;;;;;9.77;5.47;;;;;;;17.03;100.00;101523.50;5034351;28;20478;-72
2023/08/14 00:33:58;;;;;;;7.93;6.13;;;;;;;17.03;100.00;101520.81;5042057;28;20029;-72
2023/08/14 00:36:24;;;;;;;9.27;5.15;;;;;;;16.98;100.00;101514.06;5023295;28;20777;-73
2023/08/14 00:38:50;;;;;;;10.82;5.57;;;;;;;16.89;100.00;101517.50;5040886;28;20076;-73
2023/08/14 00:41:16;;;;;;;13.35;6.38;;;;;;;16.90;100.00;101503.03;5034696;28;20026;-73
2023/08/14 00:43:41;;;;;;;9.90;6.00;;;;;;;16.85;100.00;101510.63;5061218;28;20034;-72
2023/08/14 00:46:07;;;;;;;12.10;5.82;;;;;;;16.81;100.00;101507.31;5030956;28;20034;-72
2023/08/14 00:48:34;;;;;;;8.63;6.32;;;;;;;16.84;100.00;101507.09;5044982;28;20085;-73
2023/08/14 00:50:59;;;;;;;8.52;5.93;;;;;;;16.80;100.00;101501.06;5039259;28;20029;-72
2023/08/14 00:53:27;;;;;;;11.40;7.25;;;;;;;16.73;100.00;101497.16;5036054;28;20036;-72
2023/08/14 00:55:54;;;;;;;11.32;6.20;;;;;;;16.70;100.00;101496.50;5042726;28;20112;-71
2023/08/14 00:58:21;;;;;;;10.00;5.95;;;;;;;16.72;100.00;101492.75;5037534;28;20065;-73
2023/08/14 01:00:47;;;;;;;7.53;5.18;;;;;;;16.77;100.00;101497.78;5039348;28;20064;-73
2023/08/14 01:03:13;;;;;;;5.20;4.70;;;;;;;16.75;100.00;101497.03;5044142;28;20555;-72
2023/08/14 01:05:38;;;;;;;9.32;5.50;;;;;;;16.76;100.00;101494.22;5050222;28;20036;-72
2023/08/14 01:08:04;;;;;;;7.15;4.38;;;;;;;16.67;100.00;101496.75;5042382;28;20830;-73
2023/08/14 01:10:56;;;;;;;6.40;4.55;;;;;;;16.46;100.00;101505.50;5054165;28;20218;-72
2023/08/14 01:13:45;;;;;;;13.20;5.32;;;;;;;16.46;100.00;101505.50;5050068;28;20220;-72
2023/08/14 01:16:18;;;;;;;8.63;5.13;;;;;;;16.44;100.00;101503.94;5052377;28;20034;-72
2023/08/14 01:18:46;;;;;;;9.65;5.07;;;;;;;16.38;100.00;101513.34;5046160;28;20113;-72
2023/08/14 01:21:18;;;;;;;8.93;5.25;;;;;;;16.31;100.00;101507.59;5053112;28;20033;-72
2023/08/14 01:24:17;;;;;;;10.75;5.75;;;;;;;16.26;100.00;101507.03;5047857;28;20038;-73
2023/08/14 01:26:46;;;;;;;5.75;4.53;;;;;;;16.25;100.00;101508.03;5030806;28;20085;-72
2023/08/14 01:29:14;;;;;;;9.38;4.53;;;;;;;16.23;100.00;101501.91;5029555;28;20056;-72
2023/08/14 01:31:39;;;;;;;5.00;4.50;;;;;;;16.25;100.00;101497.25;5026520;28;20045;-72
2023/08/14 01:34:05;;;;;;;5.47;3.55;;;;;;;16.16;100.00;101500.66;5035258;28;20030;-72
2023/08/14 01:37:11;;;;;;;6.20;3.30;;;;;;;16.21;100.00;101503.00;5023797;28;20034;-73
2023/08/14 01:39:47;;;;;;;5.80;5.20;;;;;;;16.17;100.00;101498.84;5068004;28;20042;-72
2023/08/14 01:42:21;;;;;;;5.57;4.47;;;;;;;16.19;100.00;101500.44;5026260;28;20064;-72
2023/08/14 01:44:51;;;;;;;14.10;5.80;;;;;;;16.27;100.00;101502.56;5057063;28;20057;-72
2023/08/14 01:47:18;;;;;;;10.05;5.55;;;;;;;16.27;100.00;101499.84;5032035;28;20041;-72
2023/08/14 01:49:45;;;;;;;7.25;6.55;;;;;;;16.31;100.00;101490.53;5029500;28;20069;-72
2023/08/14 01:52:11;;;;;;;11.45;6.28;;;;;;;16.26;100.00;101492.72;5034176;28;20042;-72
2023/08/14 01:54:37;;;;;;;5.38;4.32;;;;;;;16.30;100.00;101499.59;5023050;28;20033;-73
2023/08/14 01:57:04;;;;;;;9.55;6.40;;;;;;;16.20;100.00;101491.38;5046587;28;20049;-72
2023/08/14 01:59:45;;;;;;;7.68;6.00;;;;;;;16.20;100.00;101485.13;5046800;28;20742;-72
2023/08/14 02:02:13;;;;;;;5.65;4.97;;;;;;;16.12;100.00;101485.75;5028044;28;20025;-71
2023/08/14 02:04:39;;;;;;;8.95;5.55;;;;;;;16.12;100.00;101479.50;5035766;28;20041;-73
2023/08/14 02:07:11;;;;;;;9.02;6.03;;;;;;;16.08;100.00;101486.09;5035919;28;20560;-72
2023/08/14 02:09:37;;;;;;;9.80;6.72;;;;;;;16.09;100.00;101483.28;5029179;28;20092;-73
2023/08/14 02:12:03;;;;;;;11.45;6.47;;;;;;;16.08;100.00;101478.03;5033628;28;20038;-72
2023/08/14 02:14:29;;;;;;;16.80;6.97;;;;;;;16.05;100.00;101479.94;5047396;28;20140;-73
2023/08/14 02:16:55;;;;;;;8.35;6.85;;;;;;;16.04;100.00;101474.69;5032644;28;20128;-72
2023/08/14 02:19:21;;;;;;;6.80;6.10;;;;;;;16.10;100.00;101471.53;5067148;28;21028;-72
2023/08/14 02:21:48;;;;;;;11.55;6.45;;;;;;;16.02;100.00;101465.91;5032700;28;20045;-73
2023/08/14 02:24:15;;;;;;;11.77;7.25;;;;;;;16.08;100.00;101467.25;5032494;28;20033;-72
2023/08/14 02:26:40;;;;;;;8.15;6.15;;;;;;;16.02;100.00;101456.00;5032844;28;20845;-72
2023/08/14 02:29:06;;;;;;;7.88;6.43;;;;;;;15.98;100.00;101451.81;5032198;28;20034;-72
2023/08/14 02:31:32;;;;;;;11.38;6.00;;;;;;;15.90;100.00;101447.97;5032342;28;20219;-72
2023/08/14 02:33:59;;;;;;;12.98;5.70;;;;;;;15.93;100.00;101447.75;5031618;28;20034;-72
2023/08/14 02:36:25;;;;;;;9.10;5.35;;;;;;;15.89;100.00;101447.13;5030925;28;20048;-72
2023/08/14 02:38:52;;;;;;;9.18;6.10;;;;;;;15.90;100.00;101440.75;5031965;28;20030;-72
2023/08/14 02:41:17;;;;;;;7.68;5.70;;;;;;;15.90;100.00;101438.06;5024856;28;20038;-72
2023/08/14 02:43:42;;;;;;;10.40;5.80;;;;;;;15.80;100.00;101448.66;5025847;28;20033;-72
2023/08/14 02:46:08;;;;;;;4.70;3.95;;;;;;;15.70;100.00;101449.50;5017677;28;20736;-73
2023/08/14 02:48:33;;;;;;;7.47;5.70;;;;;;;15.73;100.00;101450.13;5028624;28;20155;-73
2023/08/14 02:51:00;;;;;;;8.10;4.55;;;;;;;15.72;100.00;101455.63;5027734;28;20656;-71
2023/08/14 02:53:25;;;;;;;6.53;5.18;;;;;;;15.64;100.00;101458.03;5033714;28;20034;-72
2023/08/14 02:55:51;;;;;;;9.13;5.38;;;;;;;15.57;100.00;101457.59;5035203;28;20774;-72
2023/08/14 02:58:18;;;;;;;15.15;9.13;;;;;;;15.48;100.00;101464.50;5026981;28;20044;-72
2023/08/14 03:00:46;;;;;;;11.70;8.10;;;;;;;15.61;100.00;101474.34;5022341;28;20034;-73
2023/08/14 03:03:12;;;;;;;13.38;8.63;;;;;;;15.64;100.00;101471.47;5022407;28;20099;-72
2023/08/14 03:05:38;;;;;;;17.42;10.60;;;;;;;15.62;100.00;101468.88;5026751;28;20552;-72
2023/08/14 03:08:04;;;;;;;11.20;8.75;;;;;;;15.70;100.00;101469.16;5020730;28;20042;-72
2023/08/14 03:10:29;;;;;;;13.18;9.07;;;;;;;15.85;100.00;101466.31;5035755;28;20084;-72
2023/08/14 03:12:56;;;;;;;17.10;9.15;;;;;;;15.82;100.00;101459.34;5028213;28;20111;-72
2023/08/14 03:15:22;;;;;;;13.32;8.80;;;;;;;15.85;100.00;101461.78;5020367;28;20041;-72
2023/08/14 03:17:47;;;;;;;12.85;8.65;;;;;;;15.89;100.00;101465.97;5022596;28;20041;-72
2023/08/14 03:20:14;;;;;;;13.48;8.85;;;;;;;15.86;100.00;101468.88;5023663;28;20042;-73
2023/08/14 03:22:39;;;;;;;17.38;10.73;;;;;;;15.64;100.00;101466.94;5027650;28;20072;-72
2023/08/14 03:25:05;;;;;;;15.40;11.18;;;;;;;15.62;100.00;101474.25;5060048;28;20704;-72
2023/08/14 03:27:31;;;;;;;14.32;10.57;;;;;;;15.71;100.00;101476.28;5027905;28;20080;-72
2023/08/14 03:29:58;;;;;;;13.52;10.15;;;;;;;15.65;100.00;101474.03;5060269;28;20136;-72
2023/08/14 03:32:23;;;;;;;17.00;11.85;;;;;;;15.70;100.00;101468.31;5029829;28;20115;-72
2023/08/14 03:34:49;;;;;;;24.38;11.48;;;;;;;15.79;100.00;101459.56;5030996;28;20129;-72
2023/08/14 03:37:14;;;;;;;18.80;10.27;;;;;;;15.82;100.00;101461.19;5031061;28;20049;-72
2023/08/14 03:39:40;;;;;;;17.50;12.38;;;;;;;15.51;100.00;101469.66;5046355;28;20044;-72
2023/08/14 03:42:06;;;;;;;10.98;8.65;;;;;;;15.40;100.00;101466.88;5013209;28;20038;-72
2023/08/14 03:44:31;;;;;;;17.13;11.18;;;;;;;15.37;100.00;101472.50;5046355;28;20060;-72
2023/08/14 03:46:58;;;;;;;17.75;11.27;;;;;;;15.45;100.00;101467.41;5032160;28;20064;-73
2023/08/14 03:49:24;;;;;;;11.80;8.88;;;;;;;15.47;100.00;101470.88;5028378;28;20546;-72
2023/08/14 03:51:49;;;;;;;17.42;9.95;;;;;;;15.58;100.00;101464.69;5030531;28;20894;-72
2023/08/14 03:54:15;;;;;;;12.10;8.88;;;;;;;15.53;100.00;101458.78;5031570;28;20950;-72
2023/08/14 03:56:41;;;;;;;16.67;9.70;;;;;;;15.54;100.00;101453.28;5026979;28;20879;-72
2023/08/14 03:59:07;;;;;;;11.55;8.57;;;;;;;15.53;100.00;101458.78;5028924;28;20041;-72
2023/08/14 04:01:32;;;;;;;15.75;8.95;;;;;;;15.53;100.00;101448.91;5042716;28;20048;-72
2023/08/14 04:03:58;;;;;;;12.82;9.25;;;;;;;15.57;100.00;101452.22;5030694;28;20041;-73
2023/08/14 04:06:23;;;;;;;14.75;9.57;;;;;;;15.55;100.00;101454.16;5023111;28;20897;-73
2023/08/14 04:08:49;;;;;;;12.50;8.77;;;;;;;15.59;100.00;101439.50;5053415;28;20030;-72
2023/08/14 04:11:15;;;;;;;15.60;9.10;;;;;;;15.59;100.00;101449.41;5027830;28;20038;-72
2023/08/14 04:13:40;;;;;;;12.02;8.35;;;;;;;15.58;100.00;101453.06;5030653;28;20760;-72
2023/08/14 04:16:06;;;;;;;12.23;8.70;;;;;;;15.61;100.00;101450.13;5030385;28;20046;-73
2023/08/14 04:18:32;;;;;;;12.13;9.15;;;;;;;15.65;100.00;101449.84;5028913;28;20360;-72
2023/08/14 04:20:58;;;;;;;17.20;8.73;;;;;;;15.68;100.00;101448.75;5044020;28;20049;-72
2023/08/14 04:23:24;;;;;;;12.93;9.15;;;;;;;15.72;100.00;101445.72;5029586;28;20041;-72
2023/08/14 04:25:51;;;;;;;12.15;8.15;;;;;;;15.66;100.00;101442.63;5030792;28;20038;-72
2023/08/14 04:28:17;;;;;;;7.07;5.28;;;;;;;15.50;100.00;101438.34;5025939;28;20034;-73
2023/08/14 04:30:42;;;;;;;9.63;6.60;;;;;;;15.57;100.00;101436.09;5029278;28;20037;-72
2023/08/14 04:33:08;;;;;;;11.25;7.30;;;;;;;15.53;100.00;101431.91;5030289;28;20525;-72
2023/08/14 04:35:37;;;;;;;9.57;7.22;;;;;;;15.56;100.00;101428.97;5061741;28;20124;-72
2023/08/14 04:38:03;;;;;;;8.40;6.78;;;;;;;15.63;100.00;101426.72;5023640;28;20042;-72
2023/08/14 04:40:29;;;;;;;16.15;8.20;;;;;;;15.78;100.00;101434.50;5026887;28;20085;-72
2023/08/14 04:42:54;;;;;;;10.55;8.07;;;;;;;16.01;100.00;101434.56;5026084;28;20092;-72
2023/08/14 04:45:21;;;;;;;12.00;8.02;;;;;;;16.13;100.00;101428.25;5029910;28;20033;-72
2023/08/14 04:47:47;;;;;;;17.25;11.00;;;;;;;16.26;100.00;101423.63;5028280;28;20040;-72
2023/08/14 04:50:12;;;;;;;20.30;11.30;;;;;;;16.48;100.00;101428.19;5039982;28;20115;-72
2023/08/14 04:52:38;;;;;;;13.48;8.18;;;;;;;16.72;100.00;101409.25;5029855;28;20107;-72
2023/08/14 04:55:05;;;;;;;13.65;8.13;;;;;;;16.91;100.00;101408.63;5034238;28;20945;-73
2023/08/14 04:57:33;;;;;;;13.63;9.15;;;;;;;16.84;100.00;101410.09;5022517;28;20042;-72
2023/08/14 04:59:59;;;;;;;13.55;8.82;;;;;;;16.89;100.00;101418.66;5040513;28;20034;-72
2023/08/14 05:02:29;;;;;;;15.93;9.25;;;;;;;16.91;100.00;101416.69;5028475;28;20045;-71
2023/08/14 05:04:54;;;;;;;10.98;9.18;;;;;;;17.12;100.00;101415.94;5029999;28;20034;-72
2023/08/14 05:07:20;;;;;;;15.45;9.60;;;;;;;17.24;100.00;101406.84;5029818;28;20854;-72
2023/08/14 05:09:48;;;;;;;17.17;10.35;;;;;;;17.34;100.00;101410.50;5045007;28;20042;-72
2023/08/14 05:12:14;;;;;;;14.93;9.60;;;;;;;17.40;100.00;101411.81;5026235;28;20029;-72
2023/08/14 05:14:41;;;;;;;11.90;9.18;;;;;;;17.44;100.00;101407.91;5012987;28;20042;-72
2023/08/14 05:17:06;;;;;;;24.45;11.20;;;;;;;17.45;100.00;101404.22;5028128;28;20668;-72
2023/08/14 05:19:32;;;;;;;19.10;11.10;;;;;;;17.68;100.00;101391.50;5028431;28;20048;-73
2023/08/14 05:21:57;;;;;;;17.13;10.93;;;;;;;17.90;100.00;101399.50;5034375;28;20034;-72
2023/08/14 05:24:23;;;;;;;20.90;12.65;;;;;;;18.12;100.00;101387.72;5048213;28;20076;-73
2023/08/14 05:26:49;;;;;;;22.15;12.95;;;;;;;18.21;100.00;101402.25;5030538;28;20034;-72
2023/08/14 05:29:14;;;;;;;22.88;14.88;;;;;;;18.45;100.00;101400.13;5027962;28;20513;-72
2023/08/14 05:31:40;;;;;;;21.17;14.88;;;;;;;18.60;100.00;101397.94;5033370;28;20037;-72
2023/08/14 05:34:05;;;;;;;29.20;18.25;;;;;;;18.72;100.00;101399.56;5060139;28;20033;-72
2023/08/14 05:36:31;;;;;;;27.23;17.77;;;;;;;18.65;100.00;101395.66;5036993;28;20928;-72
2023/08/14 05:38:56;;;;;;;24.45;18.45;;;;;;;18.90;100.00;101388.97;5036922;28;20036;-72
2023/08/14 05:41:22;;;;;;;26.58;17.80;;;;;;;18.82;100.00;101394.19;5031813;28;20069;-72
2023/08/14 05:43:48;;;;;;;28.45;17.23;;;;;;;19.27;100.00;101399.13;5037904;28;20069;-72
2023/08/14 05:46:14;;;;;;;33.15;18.55;;;;;;;19.51;100.00;101390.63;5041586;28;20038;-72
2023/08/14 05:48:39;;;;;;;26.30;16.50;;;;;;;19.70;100.00;101392.53;5035338;28;20550;-72
2023/08/14 05:51:05;;;;;;;19.80;15.85;;;;;;;19.57;100.00;101393.63;5032716;28;20042;-72
2023/08/14 05:53:31;;;;;;;31.38;16.38;;;;;;;19.52;100.00;101395.91;5032872;28;20129;-72
2023/08/14 05:55:56;;;;;;;24.73;15.88;;;;;;;19.61;100.00;101405.06;5033379;28;20041;-72
2023/08/14 05:58:22;;;;;;;24.23;17.98;;;;;;;19.54;100.00;101402.03;5033452;28;20111;-72
2023/08/14 06:00:49;;;;;;;28.33;17.30;;;;;;;19.53;100.00;101399.44;5034870;28;20029;-72
2023/08/14 06:03:14;;;;;;;23.85;15.63;;;;;;;19.26;100.00;101395.59;5031764;28;20136;-72
2023/08/14 06:05:40;;;;;;;26.88;16.35;;;;;;;19.28;100.00;101404.44;5050032;28;20049;-72
2023/08/14 06:08:06;;;;;;;21.45;16.48;;;;;;;19.12;100.00;101402.25;5035568;28;20049;-72
2023/08/14 06:10:31;;;;;;;34.78;17.52;;;;;;;19.05;100.00;101403.81;5029479;28;20075;-71
2023/08/14 06:12:57;;;;;;;27.98;18.15;;;;;;;19.41;100.00;101415.81;5033283;28;20224;-72
2023/08/14 06:15:24;;;;;;;24.67;16.45;;;;;;;19.74;100.00;101404.78;5026949;28;20538;-72
2023/08/14 06:17:50;;;;;;;26.67;18.70;;;;;;;19.99;100.00;101415.00;5031897;28;20033;-72
2023/08/14 06:20:16;;;;;;;44.13;19.83;;;;;;;20.05;100.00;101410.88;5028981;28;20119;-72
2023/08/14 06:22:46;;;;;;;26.77;19.08;;;;;;;20.20;100.00;101413.97;5029656;28;20044;-72
2023/08/14 06:25:13;;;;;;;32.97;20.00;;;;;;;20.26;100.00;101413.41;5022619;28;20038;-72
2023/08/14 06:27:40;;;;;;;29.08;19.10;;;;;;;20.24;100.00;101420.81;5044027;28;20061;-72
2023/08/14 06:30:10;;;;;;;28.33;17.33;;;;;;;20.02;100.00;101422.84;5061104;28;20157;-72
2023/08/14 06:32:37;;;;;;;30.77;18.10;;;;;;;19.91;100.00;101420.28;5028687;28;20033;-72
2023/08/14 06:35:04;;;;;;;25.52;19.10;;;;;;;19.73;100.00;101432.81;5023800;28;20073;-72
2023/08/14 06:37:30;;;;;;;29.25;18.85;;;;;;;19.88;100.00;101436.81;5029642;28;20076;-72
2023/08/14 06:39:56;;;;;;;27.20;18.42;;;;;;;19.93;100.00;101439.97;5025399;28;20056;-72
2023/08/14 06:42:21;;;;;;;26.13;17.60;;;;;;;20.03;100.00;101446.22;5028003;28;20048;-72
2023/08/14 06:44:47;;;;;;;25.63;18.13;;;;;;;20.02;100.00;101449.06;5028692;28;20045;-72
2023/08/14 06:47:12;;;;;;;34.50;18.05;;;;;;;20.03;100.00;101450.75;5028341;28;20045;-72
2023/08/14 06:49:38;;;;;;;33.05;19.05;;;;;;;20.05;100.00;101454.19;5026889;28;20091;-72
2023/08/14 06:52:04;;;;;;;30.63;20.45;;;;;;;19.91;100.00;101440.09;5027539;28;21180;-72
2023/08/14 06:54:29;;;;;;;30.00;18.45;;;;;;;19.90;100.00;101435.69;5026911;28;20033;-72
2023/08/14 06:56:55;;;;;;;26.48;18.83;;;;;;;19.75;100.00;101441.66;5022858;28;20623;-72
2023/08/14 06:59:20;;;;;;;28.27;18.40;;;;;;;19.83;100.00;101448.09;5042252;28;20045;-72
2023/08/14 07:01:46;;;;;;;26.65;17.83;;;;;;;19.86;100.00;101449.63;5042804;28;20034;-72
2023/08/14 07:04:12;;;;;;;30.98;18.45;;;;;;;19.89;100.00;101446.66;5058010;28;20034;-72
2023/08/14 07:06:37;;;;;;;28.88;17.80;;;;;;;19.97;100.00;101438.66;5028549;28;20123;-72
2023/08/14 07:09:03;;;;;;;31.33;17.67;;;;;;;20.12;100.00;101429.09;5028757;28;20049;-72
2023/08/14 07:11:36;;;;;;;32.83;17.80;;;;;;;20.26;100.00;101419.66;5026254;28;20053;-72
2023/08/14 07:14:02;;;;;;;30.95;17.92;;;;;;;20.49;100.00;101414.78;5028074;28;20136;-72
2023/08/14 07:16:28;;;;;;;26.15;16.85;;;;;;;20.76;100.00;101410.41;5026676;28;20064;-72
2023/08/14 07:18:53;;;;;;;26.35;16.00;;;;;;;20.64;100.00;101416.03;5027040;28;20037;-72
2023/08/14 07:21:19;;;;;;;24.90;15.10;;;;;;;20.63;100.00;101414.31;5030070;28;20030;-72
2023/08/14 07:23:44;;;;;;;25.08;13.13;;;;;;;20.59;100.00;101414.75;5027918;28;20091;-71
2023/08/14 07:26:12;;;;;;;23.38;13.73;;;;;;;20.82;100.00;101401.66;5026978;28;20033;-72
2023/08/14 07:28:39;;;;;;;19.67;12.63;;;;;;;21.10;100.00;101402.53;5030367;28;20034;-72
2023/08/14 07:31:05;;;;;;;21.88;13.05;;;;;;;21.53;100.00;101395.53;5027235;28;20026;-72
2023/08/14 07:33:30;;;;;;;26.67;13.10;;;;;;;21.92;100.00;101396.91;5027573;28;20029;-72
2023/08/14 07:35:58;;;;;;;26.15;12.90;;;;;;;22.17;100.00;101400.69;5030249;28;20042;-72
2023/08/14 07:38:25;;;;;;;22.00;11.93;;;;;;;21.82;100.00;101398.84;5028170;28;20056;-72
2023/08/14 07:40:51;;;;;;;20.70;11.20;;;;;;;22.46;100.00;101399.53;5017279;28;20964;-72
2023/08/14 07:43:16;;;;;;;20.23;11.00;;;;;;;22.85;100.00;101390.88;5020269;28;20053;-72
2023/08/14 07:45:43;;;;;;;25.85;11.40;;;;;;;23.56;100.00;101389.56;5031117;28;20110;-72
2023/08/14 07:48:09;;;;;;;20.27;11.10;;;;;;;23.55;100.00;101380.53;5061763;28;20042;-72
2023/08/14 07:50:34;;;;;;;22.88;10.38;;;;;;;23.74;100.00;101379.38;5031350;28;20033;-72
2023/08/14 07:53:00;;;;;;;18.15;8.25;;;;;;;23.35;97.58;101381.88;5036338;28;20040;-72
2023/08/14 07:55:25;;;;;;;23.67;9.45;;;;;;;23.34;100.00;101383.72;5029803;28;20061;-72
2023/08/14 07:57:51;;;;;;;18.90;8.73;;;;;;;23.46;97.76;101389.72;5030917;28;20042;-72
2023/08/14 08:00:17;;;;;;;18.13;8.15;;;;;;;23.47;96.74;101388.69;5029920;28;20033;-72
2023/08/14 08:02:42;;;;;;;14.95;7.32;;;;;;;23.67;95.01;101392.81;5033681;28;20566;-72
2023/08/14 08:05:08;;;;;;;18.13;8.02;;;;;;;23.74;96.56;101387.53;5029834;28;20036;-72
2023/08/14 08:07:34;;;;;;;17.70;8.00;;;;;;;23.86;98.59;101379.91;5030537;28;21181;-72
2023/08/14 08:10:01;;;;;;;13.07;8.13;;;;;;;23.67;96.86;101376.50;5029838;28;20033;-72
2023/08/14 08:12:27;;;;;;;17.98;9.00;;;;;;;23.75;96.47;101379.22;5031436;28;20088;-71
2023/08/14 08:14:52;;;;;;;17.80;8.90;;;;;;;23.80;95.27;101386.88;5031777;28;20053;-72
2023/08/14 08:17:18;;;;;;;16.70;8.23;;;;;;;23.06;100.00;101385.88;5030807;28;20054;-72
2023/08/14 08:19:45;;;;;;;17.05;8.07;;;;;;;23.46;100.00;101392.44;5026176;28;20041;-72
2023/08/14 08:22:11;;;;;;;20.60;8.30;;;;;;;23.65;100.00;101404.94;5029311;28;20036;-72
2023/08/14 08:24:37;;;;;;;23.20;9.23;;;;;;;23.59;100.00;101405.53;5023930;28;20074;-72
2023/08/14 08:27:02;;;;;;;12.68;7.00;;;;;;;23.86;99.23;101404.41;5030230;28;20062;-72
2023/08/14 08:29:28;;;;;;;16.60;8.00;;;;;;;24.19;100.00;101406.06;5026567;28;20066;-72
2023/08/14 08:31:53;;;;;;;13.75;7.22;;;;;;;24.48;100.00;101415.59;5027621;28;20128;-72
2023/08/14 08:34:19;;;;;;;17.55;6.75;;;;;;;24.56;94.89;101415.59;5030002;28;20038;-72
2023/08/14 08:36:44;;;;;;;18.77;7.35;;;;;;;24.25;93.10;101410.88;5029386;28;20820;-71
2023/08/14 08:39:10;;;;;;;13.55;6.55;;;;;;;24.41;92.67;101407.28;5030416;28;20919;-72
2023/08/14 08:41:39;;;;;;;16.50;6.72;;;;;;;24.41;95.12;101400.97;5030860;28;20045;-72
2023/08/14 08:44:07;;;;;;;16.38;7.53;;;;;;;24.12;92.81;101398.78;5029300;28;20034;-72
2023/08/14 08:46:37;;;;;;;14.82;6.80;;;;;;;23.66;90.29;101398.44;5029555;28;20026;-72
2023/08/14 08:49:07;;;;;;;12.57;5.75;;;;;;;23.93;93.51;101395.38;5029634;28;20049;-71
2023/08/14 08:51:38;;;;;;;15.35;6.18;;;;;;;24.16;96.20;101395.53;5029144;28;20038;-71
2023/08/14 08:54:04;;;;;;;19.97;6.93;;;;;;;23.81;93.43;101387.75;5030224;28;20025;-72
2023/08/14 08:56:30;;;;;;;14.70;6.63;;;;;;;23.66;92.30;101390.28;5029177;28;20037;-72
2023/08/14 08:58:58;;;;;;;19.13;5.68;;;;;;;24.22;96.31;101380.38;5029222;28;20034;-72
2023/08/14 09:01:24;;;;;;;17.70;6.35;;;;;;;24.24;93.50;101375.56;5029773;28;20076;-72
2023/08/14 09:03:49;;;;;;;15.48;5.57;;;;;;;24.73;96.92;101379.03;5030487;28;20039;-71
2023/08/14 09:06:15;;;;;;;17.23;5.75;;;;;;;24.69;90.04;101380.41;5024724;28;20120;-72
2023/08/14 09:08:41;;;;;;;16.55;4.78;;;;;;;24.47;92.50;101373.84;5030811;28;21135;-72
2023/08/14 09:11:07;;;;;;;15.88;6.07;;;;;;;24.54;90.93;101366.66;5029721;28;20044;-72
2023/08/14 09:13:32;;;;;;;15.98;5.95;;;;;;;24.28;87.64;101364.16;5026043;28;20048;-72
2023/08/14 09:16:00;;;;;;;12.95;5.05;;;;;;;24.17;84.30;101360.97;5028467;28;20038;-72
2023/08/14 09:18:25;;;;;;;14.80;5.80;;;;;;;24.02;83.88;101366.25;5029262;28;20503;-72
2023/08/14 09:20:51;;;;;;;13.35;5.10;;;;;;;24.34;90.64;101359.03;5029172;28;20042;-72
2023/08/14 09:23:17;;;;;;;11.95;4.93;;;;;;;24.69;88.61;101364.06;5026493;28;20041;-71
2023/08/14 09:25:45;;;;;;;15.90;5.50;;;;;;;24.74;87.03;101355.34;5029718;28;20459;-72
2023/08/14 09:28:11;;;;;;;10.77;4.60;;;;;;;24.36;80.40;101357.88;5029659;28;20899;-71
2023/08/14 09:30:38;;;;;;;15.98;4.45;;;;;;;23.92;80.79;101355.53;5027116;28;20084;-72
2023/08/14 09:33:12;;;;;;;16.08;4.82;;;;;;;24.27;80.47;101350.72;5029485;28;20088;-72
2023/08/14 09:35:38;;;;;;;9.38;4.32;;;;;;;23.99;81.84;101356.53;5024361;28;20152;-72
2023/08/14 09:38:05;;;;;;;13.10;4.57;;;;;;;24.47;82.32;101338.41;5027564;28;20242;-72
2023/08/14 09:40:32;;;;;;;12.40;4.40;;;;;;;24.40;79.54;101344.72;5028436;28;20037;-72
2023/08/14 09:42:59;;;;;;;9.65;4.00;;;;;;;24.37;78.69;101340.50;5021586;28;20033;-71
2023/08/14 09:45:28;;;;;;;15.05;4.72;;;;;;;24.79;81.66;101326.50;5029492;28;20052;-73
2023/08/14 09:48:00;;;;;;;15.85;4.47;;;;;;;25.02;78.74;101329.28;5029895;28;20037;-72
2023/08/14 09:50:27;;;;;;;;;;;;;;;25.40;81.69;101329.38;5044928;28;20939;-72
2023/08/14 09:52:56;;;;;;;8.55;3.67;;;;;;;25.42;80.35;101335.53;5031218;28;20518;-71
2023/08/14 09:55:23;;;;;;;15.57;4.03;;;;;;;25.49;77.16;101331.00;5033906;28;20033;-72
2023/08/14 09:57:50;;;;;;;18.83;5.25;;;;;;;25.69;77.94;101333.25;5036150;28;20152;-72
2023/08/14 10:00:16;;;;;;;9.45;4.03;;;;;;;25.79;78.42;101325.66;5036563;28;20037;-71
2023/08/14 10:02:44;;;;;;;13.13;4.70;;;;;;;25.14;75.31;101337.06;5036091;28;20523;-72
2023/08/14 10:05:10;;;;;;;12.15;3.80;;;;;;;24.62;74.49;101340.41;5034157;28;20034;-72
2023/08/14 10:07:38;;;;;;;13.18;3.95;;;;;;;25.03;76.92;101344.63;5031036;28;20637;-72
2023/08/14 10:10:06;;;;;;;15.45;4.22;;;;;;;25.29;74.72;101344.31;5036193;28;20092;-71
2023/08/14 10:12:39;;;;;;;11.80;4.13;;;;;;;25.19;72.52;101340.13;5026160;28;20037;-71
2023/08/14 10:15:11;;;;;;;12.60;4.53;;;;;;;25.38;73.24;101341.53;5029658;28;20376;-72
2023/08/14 10:17:54;;;;;;;12.88;4.47;;;;;;;25.89;78.15;101341.81;5034383;28;20200;-72
2023/08/14 10:20:22;;;;;;;12.50;3.92;;;;;;;25.52;73.06;101344.31;5029727;28;20037;-71
2023/08/14 10:22:49;;;;;;;8.98;3.42;;;;;;;26.14;74.24;101337.78;5033742;28;20029;-72
2023/08/14 10:25:15;;;;;;;11.50;3.65;;;;;;;26.22;73.69;101339.59;5035304;28;20026;-72
2023/08/14 10:27:42;;;;;;;8.43;2.70;;;;;;;26.16;69.89;101340.34;5037402;28;20055;-72
2023/08/14 10:30:09;;;;;;;9.98;3.80;;;;;;;26.28;72.82;101327.91;5030372;28;20037;-72
2023/08/14 10:32:36;;;;;;;10.75;3.33;;;;;;;26.31;73.41;101328.38;5032084;28;20033;-72
2023/08/14 10:35:02;;;;;;;11.27;4.28;;;;;;;25.50;71.38;101332.75;5037557;28;20042;-72
2023/08/14 10:37:41;;;;;;;7.82;3.40;;;;;;;26.17;74.13;101315.56;5039834;28;20084;-71
2023/08/14 10:40:14;;;;;;;8.55;3.75;;;;;;;26.25;74.76;101309.97;5041712;28;20045;-71
2023/08/14 10:43:00;;;;;;;10.50;3.90;;;;;;;26.13;70.28;101305.19;5041877;28;20107;-72
2023/08/14 10:45:27;;;;;;;9.25;2.97;;;;;;;26.52;75.06;101302.19;5035558;28;20065;-72
2023/08/14 10:47:58;;;;;;;12.15;3.15;;;;;;;25.88;69.31;101297.25;5034429;28;20034;-72
2023/08/14 10:50:25;;;;;;;7.80;2.80;;;;;;;26.29;67.29;101285.84;5041374;28;20103;-72
2023/08/14 10:52:53;;;;;;;13.90;3.70;;;;;;;26.31;69.69;101281.06;5044071;28;20037;-72
2023/08/14 10:55:45;;;;;;;8.40;3.38;;;;;;;25.99;66.45;101285.84;5046302;28;20025;-72
2023/08/14 10:58:31;;;;;;;11.98;3.60;;;;;;;25.70;67.54;101278.41;5052852;28;20037;-71
2023/08/14 11:00:58;;;;;;;10.85;3.42;;;;;;;26.08;70.86;101276.50;5043389;28;20041;-72
2023/08/14 11:03:24;;;;;;;8.52;3.20;;;;;;;25.92;67.90;101273.97;5045804;28;20034;-72
2023/08/14 11:05:50;;;;;;;8.48;3.08;;;;;;;26.28;71.53;101278.69;5036368;28;21060;-72
2023/08/14 11:08:16;;;;;;;8.73;2.53;;;;;;;26.53;67.69;101271.88;5038126;28;20061;-72
2023/08/14 11:10:43;;;;;;;5.95;2.53;;;;;;;26.08;65.73;101268.31;5050835;28;20121;-71
2023/08/14 11:13:10;;;;;;;6.80;3.17;;;;;;;26.68;66.69;101269.13;5049838;28;20030;-72